createdAt,value
2022-08-17T00:00:01.638Z,100547.63
2022-08-17T00:02:29.701Z,100555.44
2022-08-17T00:04:58.572Z,100553.81
2022-08-17T00:07:25.840Z,100550.56
2022-08-17T00:09:52.995Z,100564.19
2022-08-17T00:12:41.280Z,100567.34
2022-08-17T00:15:10.543Z,100559.06
2022-08-17T00:17:38.833Z,100560.91
2022-08-17T00:20:06.843Z,100558.50
2022-08-17T00:22:36.406Z,100555.00
2022-08-17T00:25:07.534Z,100549.63
2022-08-17T00:27:38.003Z,100549.63
2022-08-17T00:30:07.588Z,100544.28
2022-08-17T00:33:12.227Z,100540.78
2022-08-17T00:35:40.663Z,100533.78
2022-08-17T00:38:10.312Z,100532.16
2022-08-17T00:40:44.617Z,100530.28
2022-08-17T00:43:27.208Z,100531.69
2022-08-17T00:45:55.197Z,100535.75
2022-08-17T00:48:30.038Z,100523.19
2022-08-17T00:51:03.776Z,100522.38
2022-08-17T00:53:33.847Z,100525.84
2022-08-17T00:56:03.590Z,100525.84
2022-08-17T00:58:36.228Z,100516.78
2022-08-17T01:01:05.435Z,100517.81
2022-08-17T01:03:33.694Z,100517.59
2022-08-17T01:06:04.714Z,100519.47
2022-08-17T01:08:33.455Z,100518.63
2022-08-17T01:11:05.813Z,100517.59
2022-08-17T01:13:41.268Z,100527.28
2022-08-17T01:16:26.282Z,100516.56
2022-08-17T01:19:02.722Z,100516.56
2022-08-17T01:22:00.803Z,100509.56
2022-08-17T01:24:29.388Z,100506.28
2022-08-17T01:26:57.719Z,100513.50
2022-08-17T01:29:26.145Z,100500.38
2022-08-17T01:31:56.949Z,100505.13
2022-08-17T01:34:42.873Z,100508.41
2022-08-17T01:37:13.344Z,100516.44
2022-08-17T01:39:45.623Z,100503.84
2022-08-17T01:42:36.813Z,100505.72
2022-08-17T01:45:11.917Z,100503.03
2022-08-17T01:47:39.209Z,100502.44
2022-08-17T01:50:12.184Z,100489.44
2022-08-17T01:52:40.453Z,100484.84
2022-08-17T01:55:10.106Z,100486.84
2022-08-17T01:57:37.319Z,100488.81
2022-08-17T02:00:10.490Z,100488.38
2022-08-17T02:02:37.438Z,100492.31
2022-08-17T02:05:05.376Z,100494.66
2022-08-17T02:07:32.533Z,100498.16
2022-08-17T02:10:20.281Z,100499.19
2022-08-17T02:12:49.326Z,100503.50
2022-08-17T02:15:16.542Z,100511.75
2022-08-17T02:17:43.600Z,100506.06
2022-08-17T02:20:11.520Z,100514.09
2022-08-17T02:22:40.322Z,100515.13
2022-08-17T02:25:09.902Z,100517.81
2022-08-17T02:27:39.037Z,100524.59
2022-08-17T02:31:00.254Z,100522.72
2022-08-17T02:32:56.475Z,100532.34
2022-08-17T02:35:23.919Z,100541.47
2022-08-17T02:37:51.951Z,100546.00
2022-08-17T02:40:35.755Z,100551.09
2022-08-17T02:43:05.486Z,100547.63
2022-08-17T02:45:32.730Z,100544.16
2022-08-17T02:47:59.773Z,100543.53
2022-08-17T02:50:27.235Z,100545.19
2022-08-17T02:53:01.747Z,100539.94
2022-08-17T02:55:36.361Z,100543.50
2022-08-17T02:58:04.409Z,100548.53
2022-08-17T03:00:35.452Z,100552.72
2022-08-17T03:03:05.865Z,100560.97
2022-08-17T03:05:35.578Z,100553.97
2022-08-17T03:08:05.773Z,100545.59
2022-08-17T03:10:33.341Z,100551.59
2022-08-17T03:13:00.850Z,100539.13
2022-08-17T03:15:31.750Z,100549.47
2022-08-17T03:17:59.857Z,100550.75
2022-08-17T03:20:28.669Z,100556.78
2022-08-17T03:23:02.980Z,100557.47
2022-08-17T03:25:37.540Z,100563.03
2022-08-17T03:28:06.563Z,100558.50
2022-08-17T03:30:34.520Z,100557.47
2022-08-17T03:33:04.986Z,100558.75
2022-08-17T03:35:34.811Z,100566.78
2022-08-17T03:38:02.629Z,100562.25
2022-08-17T03:40:34.449Z,100559.31
2022-08-17T03:43:19.384Z,100569.34
2022-08-17T03:46:05.026Z,100563.97
2022-08-17T03:48:51.558Z,100563.16
2022-08-17T03:51:48.367Z,100562.59
2022-08-17T03:54:33.781Z,100567.00
2022-08-17T03:57:05.583Z,100565.34
2022-08-17T03:59:33.555Z,100565.13
2022-08-17T04:02:13.557Z,100567.81
2022-08-17T04:04:40.994Z,100560.81
2022-08-17T04:07:08.242Z,100565.34
2022-08-17T04:09:36.840Z,100559.78
2022-08-17T04:12:05.435Z,100563.03
2022-08-17T04:14:51.890Z,100552.94
2022-08-17T04:17:23.439Z,100557.25
2022-08-17T04:19:50.586Z,100563.63
2022-08-17T04:22:32.737Z,100564.66
2022-08-17T04:25:08.920Z,100564.31
2022-08-17T04:27:36.551Z,100566.03
2022-08-17T04:30:07.555Z,100564.63
2022-08-17T04:33:06.217Z,100561.16
2022-08-17T04:35:38.590Z,100566.50
2022-08-17T04:38:07.463Z,100559.50
2022-08-17T04:40:52.969Z,100568.91
2022-08-17T04:43:22.147Z,100565.44
2022-08-17T04:45:56.240Z,100558.47
2022-08-17T04:48:37.362Z,100559.50
2022-08-17T04:51:08.599Z,100563.22
2022-08-17T04:53:35.851Z,100556.63
2022-08-17T04:56:03.073Z,100558.22
2022-08-17T04:58:30.268Z,100547.78
2022-08-17T05:00:57.848Z,100545.31
2022-08-17T05:03:25.055Z,100543.88
2022-08-17T05:05:52.177Z,100551.13
2022-08-17T05:08:20.986Z,100543.09
2022-08-17T05:10:49.343Z,100545.38
2022-08-17T05:13:24.306Z,100532.22
2022-08-17T05:15:55.761Z,100528.38
2022-08-17T05:18:24.431Z,100527.00
2022-08-17T05:20:52.601Z,100522.91
2022-08-17T05:23:21.195Z,100537.31
2022-08-17T05:25:50.783Z,100541.03
2022-08-17T05:28:24.122Z,100553.59
2022-08-17T05:30:55.361Z,100551.75
2022-08-17T05:33:25.574Z,100552.31
2022-08-17T05:35:55.003Z,100559.50
2022-08-17T05:38:24.554Z,100567.53
2022-08-17T05:40:52.788Z,100564.88
2022-08-17T05:43:25.746Z,100565.94
2022-08-17T05:46:22.922Z,100571.13
2022-08-17T05:48:53.034Z,100571.56
2022-08-17T05:51:59.239Z,100573.19
2022-08-17T05:54:28.962Z,100580.19
2022-08-17T05:57:34.591Z,100588.78
2022-08-17T06:00:26.230Z,100591.03
2022-08-17T06:03:11.365Z,100609.50
2022-08-17T06:05:59.673Z,100613.81
2022-08-17T06:08:37.140Z,100600.22
2022-08-17T06:11:39.110Z,100604.31
2022-08-17T06:14:30.984Z,100599.34
2022-08-17T06:17:06.391Z,100594.00
2022-08-17T06:19:42.182Z,100600.38
2022-08-17T06:22:13.648Z,100606.31
2022-08-17T06:24:51.637Z,100610.41
2022-08-17T06:27:46.197Z,100607.94
2022-08-17T06:30:15.565Z,100610.63
2022-08-17T06:32:45.380Z,100617.03
2022-08-17T06:35:16.973Z,100628.28
2022-08-17T06:38:05.084Z,100624.22
2022-08-17T06:40:47.368Z,100629.56
2022-08-17T06:43:51.516Z,100630.41
2022-08-17T06:46:33.408Z,100646.28
2022-08-17T06:49:22.169Z,100657.56
2022-08-17T06:52:07.576Z,100647.09
2022-08-17T06:55:00.445Z,100647.09
2022-08-17T06:57:33.270Z,100646.88
2022-08-17T07:00:17.619Z,100642.13
2022-08-17T07:03:07.246Z,100644.94
2022-08-17T07:05:37.362Z,100644.72
2022-08-17T07:08:35.176Z,100646.72
2022-08-17T07:11:32.436Z,100640.72
2022-08-17T07:14:17.276Z,100645.25
2022-08-17T07:16:49.084Z,100662.13
2022-08-17T07:19:18.783Z,100659.88
2022-08-17T07:22:06.036Z,100671.38
2022-08-17T07:24:47.485Z,100664.19
2022-08-17T07:27:31.386Z,100672.56
2022-08-17T07:30:06.780Z,100671.91
2022-08-17T07:32:45.516Z,100673.31
2022-08-17T07:35:41.240Z,100686.09
2022-08-17T07:38:24.958Z,100686.09
2022-08-17T07:41:03.085Z,100699.25
2022-08-17T07:43:35.793Z,100701.72
2022-08-17T07:46:30.590Z,100720.44
2022-08-17T07:49:23.484Z,100717.56
2022-08-17T07:51:51.420Z,100721.63
2022-08-17T07:54:35.870Z,100728.41
2022-08-17T07:57:08.792Z,100728.41
2022-08-17T07:59:38.826Z,100738.44
2022-08-17T08:02:17.795Z,100738.19
2022-08-17T08:05:01.205Z,100745.25
2022-08-17T08:07:50.640Z,100739.69
2022-08-17T08:10:27.947Z,100737.22
2022-08-17T08:13:12.307Z,100744.00
2022-08-17T08:15:53.666Z,100737.16
2022-08-17T08:18:53.636Z,100725.34
2022-08-17T08:21:59.205Z,100722.06
2022-08-17T08:24:44.970Z,100713.88
2022-08-17T08:27:34.992Z,100716.19
2022-08-17T08:30:06.686Z,100713.28
2022-08-17T08:32:57.705Z,100727.88
2022-08-17T08:35:44.575Z,100716.88
2022-08-17T08:38:28.273Z,100714.56
2022-08-17T08:41:30.667Z,100712.41
2022-08-17T08:45:01.096Z,100714.56
2022-08-17T08:47:37.645Z,100722.47
2022-08-17T08:50:37.110Z,100722.63
2022-08-17T08:53:14.511Z,100717.53
2022-08-17T08:55:51.165Z,100723.97
2022-08-17T08:58:31.467Z,100728.56
2022-08-17T09:01:18.466Z,100720.19
2022-08-17T09:04:23.251Z,100723.44
2022-08-17T09:07:08.431Z,100724.06
2022-08-17T09:10:05.218Z,100734.47
2022-08-17T09:12:56.560Z,100727.13
2022-08-17T09:15:28.702Z,100731.00
2022-08-17T09:18:59.369Z,100728.91
2022-08-17T09:23:39.157Z,100730.50
2022-08-17T09:26:25.600Z,100733.91
2022-08-17T09:28:55.969Z,100726.47
2022-08-17T09:31:33.149Z,100736.50
2022-08-17T09:34:09.268Z,100734.38
2022-08-17T09:36:44.868Z,100735.78
2022-08-17T09:39:20.494Z,100740.94
2022-08-17T09:42:05.048Z,100741.72
2022-08-17T09:44:49.744Z,100740.94
2022-08-17T09:47:32.748Z,100740.47
2022-08-17T09:51:05.013Z,100743.13
2022-08-17T09:53:17.942Z,100741.97
2022-08-17T09:56:20.012Z,100745.59
2022-08-17T09:59:22.634Z,100748.38
2022-08-17T10:02:16.806Z,100749.44
2022-08-17T10:04:58.806Z,100759.00
2022-08-17T10:07:36.896Z,100762.41
2022-08-17T10:10:56.748Z,100767.88
2022-08-17T10:13:41.811Z,100774.28
2022-08-17T10:16:23.388Z,100773.47
2022-08-17T10:19:07.381Z,100774.06
2022-08-17T10:22:01.083Z,100767.97
2022-08-17T10:25:23.416Z,100770.16
2022-08-17T10:28:02.032Z,100769.13
2022-08-17T10:30:33.023Z,100774.25
2022-08-17T10:33:15.806Z,100775.41
2022-08-17T10:36:01.643Z,100770.88
2022-08-17T10:38:40.173Z,100774.00
2022-08-17T10:41:33.895Z,100773.44
2022-08-17T10:44:41.078Z,100771.81
2022-08-17T10:47:15.260Z,100769.94
2022-08-17T10:49:54.354Z,100774.72
2022-08-17T10:52:22.122Z,100773.34
2022-08-17T10:54:51.873Z,100763.41
2022-08-17T10:57:31.937Z,100755.38
2022-08-17T11:00:00.674Z,100759.91
2022-08-17T11:02:31.658Z,100758.97
2022-08-17T11:05:14.539Z,100745.03
2022-08-17T11:08:05.410Z,100740.22
2022-08-17T11:10:57.214Z,100742.84
2022-08-17T11:13:45.168Z,100729.84
2022-08-17T11:16:53.467Z,100730.16
2022-08-17T11:19:57.869Z,100733.19
2022-08-17T11:22:44.602Z,100731.66
2022-08-17T11:25:31.972Z,100730.25
2022-08-17T11:28:34.742Z,100726.50
2022-08-17T11:31:38.373Z,100728.75
2022-08-17T11:34:19.009Z,100718.53
2022-08-17T11:37:01.922Z,100721.22
2022-08-17T11:40:08.493Z,100715.56
2022-08-17T11:42:50.480Z,100716.78
2022-08-17T11:45:32.491Z,100720.38
2022-08-17T11:48:55.377Z,100720.78
2022-08-17T11:51:55.118Z,100719.22
2022-08-17T11:54:33.751Z,100709.88
2022-08-17T11:57:21.686Z,100711.81
2022-08-17T11:59:48.550Z,100705.47
2022-08-17T12:02:35.228Z,100717.16
2022-08-17T12:05:13.273Z,100707.56
2022-08-17T12:08:07.246Z,100714.13
2022-08-17T12:10:36.865Z,100710.47
2022-08-17T12:13:13.417Z,100710.78
2022-08-17T12:15:48.880Z,100708.44
2022-08-17T12:18:20.646Z,100710.00
2022-08-17T12:21:01.662Z,100707.13
2022-08-17T12:23:57.710Z,100709.50
2022-08-17T12:26:33.543Z,100709.25
2022-08-17T12:29:04.168Z,100714.88
2022-08-17T12:31:53.039Z,100712.69
2022-08-17T12:34:36.180Z,100703.50
2022-08-17T12:37:08.288Z,100701.25
2022-08-17T12:39:35.360Z,100703.88
2022-08-17T12:42:03.468Z,100694.44
2022-08-17T12:44:36.468Z,100700.66
2022-08-17T12:47:22.251Z,100703.81
2022-08-17T12:49:54.758Z,100702.44
2022-08-17T12:52:33.466Z,100702.94
2022-08-17T12:55:02.118Z,100709.13
2022-08-17T12:57:41.261Z,100712.94
2022-08-17T13:00:13.917Z,100712.66
2022-08-17T13:02:51.380Z,100708.38
2022-08-17T13:05:27.758Z,100708.31
2022-08-17T13:07:57.776Z,100707.78
2022-08-17T13:10:32.131Z,100703.94
2022-08-17T13:13:05.540Z,100707.63
2022-08-17T13:15:44.849Z,100710.78
2022-08-17T13:18:39.234Z,100711.00
2022-08-17T13:21:19.010Z,100708.16
2022-08-17T13:24:04.416Z,100709.59
2022-08-17T13:26:44.654Z,100711.56
2022-08-17T13:29:27.729Z,100718.50
2022-08-17T13:32:19.824Z,100718.66
2022-08-17T13:35:12.012Z,100726.03
2022-08-17T13:37:40.583Z,100729.28
2022-08-17T13:40:08.247Z,100726.81
2022-08-17T13:42:52.724Z,100737.13
2022-08-17T13:45:36.179Z,100743.25
2022-08-17T13:48:13.770Z,100744.34
2022-08-17T13:51:11.215Z,100752.91
2022-08-17T13:53:37.979Z,100759.00
2022-08-17T13:56:37.037Z,100763.81
2022-08-17T13:59:04.574Z,100753.97
2022-08-17T14:01:34.424Z,100750.72
2022-08-17T14:04:13.703Z,100759.22
2022-08-17T14:07:24.946Z,100770.41
2022-08-17T14:10:09.440Z,100774.78
2022-08-17T14:12:39.951Z,100776.78
2022-08-17T14:15:08.787Z,100778.34
2022-08-17T14:17:38.831Z,100777.25
2022-08-17T14:20:09.751Z,100785.22
2022-08-17T14:22:40.845Z,100784.47
2022-08-17T14:25:08.665Z,100778.19
2022-08-17T14:27:47.465Z,100784.00
2022-08-17T14:30:22.567Z,100774.56
2022-08-17T14:32:52.002Z,100769.63
2022-08-17T14:35:24.311Z,100786.16
2022-08-17T14:37:52.515Z,100789.88
2022-08-17T14:40:21.030Z,100779.16
2022-08-17T14:42:48.308Z,100795.09
2022-08-17T14:45:29.939Z,100787.53
2022-08-17T14:47:59.425Z,100788.97
2022-08-17T14:50:27.373Z,100794.59
2022-08-17T14:52:57.880Z,100784.44
2022-08-17T14:55:26.220Z,100783.41
2022-08-17T14:57:53.401Z,100772.50
2022-08-17T15:00:20.399Z,100785.88
2022-08-17T15:02:53.902Z,100788.34
2022-08-17T15:05:23.852Z,100795.31
2022-08-17T15:07:51.012Z,100800.91
2022-08-17T15:10:18.153Z,100798.22
2022-08-17T15:12:45.661Z,100811.63
2022-08-17T15:15:16.087Z,100807.88
2022-08-17T15:17:46.039Z,100813.00
2022-08-17T15:20:33.485Z,100826.19
2022-08-17T15:23:00.677Z,100835.72
2022-08-17T15:25:32.122Z,100848.50
2022-08-17T15:28:00.284Z,100846.28
2022-08-17T15:30:27.765Z,100853.91
2022-08-17T15:32:56.893Z,100855.19
2022-08-17T15:35:27.995Z,100856.44
2022-08-17T15:38:06.282Z,100849.69
2022-08-17T15:40:43.749Z,100863.44
2022-08-17T15:43:17.359Z,100864.72
2022-08-17T15:45:45.002Z,100863.53
2022-08-17T15:48:40.969Z,100867.69
2022-08-17T15:51:15.260Z,100878.81
2022-08-17T15:53:44.838Z,100882.78
2022-08-17T15:56:13.893Z,100873.53
2022-08-17T15:58:42.510Z,100870.84
2022-08-17T16:01:16.584Z,100854.22
2022-08-17T16:04:04.096Z,100851.00
2022-08-17T16:06:33.830Z,100857.00
2022-08-17T16:09:00.835Z,100857.44
2022-08-17T16:11:27.760Z,100866.50
2022-08-17T16:13:56.023Z,100860.13
2022-08-17T16:16:23.862Z,100850.22
2022-08-17T16:18:54.528Z,100852.28
2022-08-17T16:21:31.146Z,100851.72
2022-08-17T16:24:13.447Z,100845.97
2022-08-17T16:26:40.729Z,100838.75
2022-08-17T16:29:08.450Z,100840.84
2022-08-17T16:31:36.352Z,100826.41
2022-08-17T16:34:17.458Z,100828.88
2022-08-17T16:36:54.852Z,100833.00
2022-08-17T16:39:29.256Z,100834.63
2022-08-17T16:41:57.243Z,100819.00
2022-08-17T16:44:24.320Z,100824.56
2022-08-17T16:46:51.279Z,100830.53
2022-08-17T16:49:35.706Z,100824.34
2022-08-17T16:52:04.530Z,100828.69
2022-08-17T16:54:31.474Z,100829.09
2022-08-17T16:56:58.313Z,100821.88
2022-08-17T16:59:31.240Z,100820.50
2022-08-17T17:02:11.185Z,100819.22
2022-08-17T17:04:45.788Z,100813.66
2022-08-17T17:07:41.647Z,100819.00
2022-08-17T17:10:13.497Z,100813.25
2022-08-17T17:13:02.041Z,100805.63
2022-08-17T17:15:39.845Z,100808.09
2022-08-17T17:18:11.765Z,100808.09
2022-08-17T17:21:12.521Z,100803.56
2022-08-17T17:23:42.110Z,100802.53
2022-08-17T17:26:35.531Z,100806.00
2022-08-17T17:29:28.769Z,100807.66
2022-08-17T17:32:21.155Z,100810.94
2022-08-17T17:34:55.271Z,100812.56
2022-08-17T17:37:32.650Z,100816.88
2022-08-17T17:40:05.280Z,100828.53
2022-08-17T17:42:33.609Z,100828.13
2022-08-17T17:45:13.837Z,100826.03
2022-08-17T17:47:40.914Z,100837.13
2022-08-17T17:50:08.656Z,100843.88
2022-08-17T17:52:47.291Z,100842.84
2022-08-17T17:55:42.895Z,100841.00
2022-08-17T17:58:38.958Z,100839.13
2022-08-17T18:01:14.786Z,100843.47
2022-08-17T18:04:04.662Z,100841.00
2022-08-17T18:07:00.463Z,100854.38
2022-08-17T18:09:27.285Z,100852.88
2022-08-17T18:11:59.146Z,100870.78
2022-08-17T18:14:35.683Z,100871.63
2022-08-17T18:17:02.634Z,100868.72
2022-08-17T18:19:31.119Z,100874.91
2022-08-17T18:22:14.488Z,100881.88
2022-08-17T18:24:44.932Z,100887.84
2022-08-17T18:27:33.547Z,100890.31
2022-08-17T18:30:21.768Z,100889.91
2022-08-17T18:32:48.756Z,100891.16
2022-08-17T18:35:18.371Z,100894.88
2022-08-17T18:38:07.970Z,100896.97
2022-08-17T18:40:37.827Z,100905.22
2022-08-17T18:43:12.595Z,100912.63
2022-08-17T18:45:47.558Z,100911.38
2022-08-17T18:48:27.242Z,100918.81
2022-08-17T18:50:58.500Z,100923.78
2022-08-17T18:53:35.237Z,100927.28
2022-08-17T18:56:34.362Z,100924.59
2022-08-17T18:59:10.686Z,100934.28
2022-08-17T19:02:05.088Z,100928.09
2022-08-17T19:05:12.082Z,100929.50
2022-08-17T19:07:46.436Z,100929.50
2022-08-17T19:10:46.092Z,100933.00
2022-08-17T19:13:24.340Z,100943.69
2022-08-17T19:16:20.770Z,100940.22
2022-08-17T19:19:16.592Z,100942.31
2022-08-17T19:21:57.315Z,100941.69
2022-08-17T19:24:27.530Z,100947.25
2022-08-17T19:27:06.984Z,100950.94
2022-08-17T19:29:57.066Z,100951.41
2022-08-17T19:32:32.629Z,100954.28
2022-08-17T19:35:01.364Z,100958.81
2022-08-17T19:37:31.398Z,100956.78
2022-08-17T19:40:35.027Z,100963.97
2022-08-17T19:43:48.363Z,100972.25
2022-08-17T19:46:35.714Z,100977.81
2022-08-17T19:49:33.475Z,100982.13
2022-08-17T19:52:40.070Z,100978.84
2022-08-17T19:55:20.716Z,100979.06
2022-08-17T19:58:10.904Z,100982.53
2022-08-17T20:00:47.330Z,100984.41
2022-08-17T20:03:23.894Z,100987.31
2022-08-17T20:06:12.176Z,100986.28
2022-08-17T20:08:49.552Z,100979.28
2022-08-17T20:11:31.814Z,100974.75
2022-08-17T20:14:15.124Z,100978.00
2022-08-17T20:16:42.355Z,100979.44
2022-08-17T20:19:33.945Z,100985.38
2022-08-17T20:22:18.082Z,100985.63
2022-08-17T20:24:45.335Z,100989.78
2022-08-17T20:27:12.430Z,100991.00
2022-08-17T20:30:04.587Z,101005.00
2022-08-17T20:32:35.768Z,101004.75
2022-08-17T20:35:21.107Z,100998.41
2022-08-17T20:37:59.015Z,101001.91
2022-08-17T20:40:35.543Z,100994.31
2022-08-17T20:43:31.597Z,100988.97
2022-08-17T20:46:32.611Z,100995.75
2022-08-17T20:49:19.895Z,100998.84
2022-08-17T20:52:03.088Z,100995.56
2022-08-17T20:54:54.397Z,101002.56
2022-08-17T20:57:33.834Z,100994.31
2022-08-17T21:00:17.401Z,100990.84
2022-08-17T21:03:07.781Z,100992.47
2022-08-17T21:06:17.121Z,100995.34
2022-08-17T21:09:07.268Z,100999.88
2022-08-17T21:11:59.980Z,100994.13
2022-08-17T21:14:38.287Z,100994.31
2022-08-17T21:17:31.761Z,100989.19
2022-08-17T21:20:12.153Z,100996.19
2022-08-17T21:23:07.295Z,100992.69
2022-08-17T21:26:10.857Z,100994.53
2022-08-17T21:29:00.241Z,101003.59
2022-08-17T21:31:35.797Z,101009.38
2022-08-17T21:34:20.799Z,101020.91
2022-08-17T21:36:48.816Z,101010.78
2022-08-17T21:39:23.285Z,101023.38
2022-08-17T21:42:01.147Z,101021.47
2022-08-17T21:44:38.010Z,101035.69
2022-08-17T21:47:24.061Z,101035.47
2022-08-17T21:49:55.191Z,101025.81
2022-08-17T21:52:26.931Z,101034.66
2022-08-17T21:54:57.391Z,101038.97
2022-08-17T21:57:28.167Z,101044.31
2022-08-17T22:00:01.470Z,101042.88
2022-08-17T22:02:36.380Z,101045.78
2022-08-17T22:05:09.008Z,101044.75
2022-08-17T22:07:40.593Z,101044.53
2022-08-17T22:10:30.028Z,101042.28
2022-08-17T22:13:04.855Z,101038.34
2022-08-17T22:15:31.944Z,101051.34
2022-08-17T22:18:04.398Z,101056.88
2022-08-17T22:20:31.466Z,101051.78
2022-08-17T22:23:19.562Z,101047.06
2022-08-17T22:26:00.259Z,101051.59
2022-08-17T22:28:45.812Z,101042.75
2022-08-17T22:31:16.421Z,101050.97
2022-08-17T22:33:45.973Z,101056.34
2022-08-17T22:36:33.232Z,101052.44
2022-08-17T22:39:07.620Z,101049.19
2022-08-17T22:42:00.488Z,101060.28
2022-08-17T22:44:35.783Z,101051.44
2022-08-17T22:47:24.405Z,101052.03
2022-08-17T22:49:57.965Z,101052.03
2022-08-17T22:52:35.254Z,101053.91
2022-08-17T22:55:32.728Z,101057.19
2022-08-17T22:58:19.381Z,101052.69
2022-08-17T23:00:49.172Z,101056.59
2022-08-17T23:03:21.036Z,101056.19
2022-08-17T23:06:09.088Z,101059.66
2022-08-17T23:08:50.392Z,101057.00
2022-08-17T23:11:17.257Z,101055.16
2022-08-17T23:13:44.601Z,101059.47
2022-08-17T23:16:11.461Z,101053.13
2022-08-17T23:18:38.755Z,101050.84
2022-08-17T23:21:07.595Z,101050.84
2022-08-17T23:23:35.433Z,101051.06
2022-08-17T23:26:10.598Z,101061.97
2022-08-17T23:28:38.222Z,101061.75
2022-08-17T23:31:05.726Z,101062.34
2022-08-17T23:33:38.814Z,101061.31
2022-08-17T23:36:09.021Z,101064.81
2022-08-17T23:38:36.679Z,101059.28
2022-08-17T23:41:11.922Z,101068.13
2022-08-17T23:43:40.089Z,101061.13
2022-08-17T23:46:07.424Z,101071.00
2022-08-17T23:48:36.557Z,101069.59
2022-08-17T23:51:18.281Z,101072.03
2022-08-17T23:53:49.385Z,101071.81
2022-08-17T23:56:19.786Z,101065.28
2022-08-17T23:58:46.657Z,101068.34
